sensor_id;sensor_type;location;lat;lon;timestamp;temperature;humidity
7676;DHT22;3880;51.464;-2.566;2022-07-23T00:02:38;17.80;99.90
7676;DHT22;3880;51.464;-2.566;2022-07-23T00:05:29;17.70;99.90
7676;DHT22;3880;51.464;-2.566;2022-07-23T00:08:07;17.70;99.90
7676;DHT22;3880;51.464;-2.566;2022-07-23T00:10:46;17.70;99.90
7676;DHT22;3880;51.464;-2.566;2022-07-23T00:13:19;17.60;99.90
7676;DHT22;3880;51.464;-2.566;2022-07-23T00:16:11;17.50;99.90
7676;DHT22;3880;51.464;-2.566;2022-07-23T00:18:52;17.40;99.90
7676;DHT22;3880;51.464;-2.566;2022-07-23T01:05:28;16.40;99.90
7676;DHT22;3880;51.464;-2.566;2022-07-23T05:57:39;17.00;99.90
7676;DHT22;3880;51.464;-2.566;2022-07-23T06:00:33;17.00;99.90
7676;DHT22;3880;51.464;-2.566;2022-07-23T06:24:21;17.30;99.90
7676;DHT22;3880;51.464;-2.566;2022-07-23T06:27:19;17.40;99.90
7676;DHT22;3880;51.464;-2.566;2022-07-23T06:30:06;17.20;99.90
7676;DHT22;3880;51.464;-2.566;2022-07-23T06:42:14;17.30;99.90
7676;DHT22;3880;51.464;-2.566;2022-07-23T06:45:14;17.30;99.90
7676;DHT22;3880;51.464;-2.566;2022-07-23T06:48:09;17.30;99.90
7676;DHT22;3880;51.464;-2.566;2022-07-23T06:54:56;17.80;99.90
7676;DHT22;3880;51.464;-2.566;2022-07-23T07:01:43;18.10;99.90
7676;DHT22;3880;51.464;-2.566;2022-07-23T07:05:27;18.20;99.90
7676;DHT22;3880;51.464;-2.566;2022-07-23T07:11:35;18.90;99.90
7676;DHT22;3880;51.464;-2.566;2022-07-23T07:14:19;19.10;99.90
7676;DHT22;3880;51.464;-2.566;2022-07-23T07:16:48;18.60;99.90
7676;DHT22;3880;51.464;-2.566;2022-07-23T07:19:19;18.60;99.90
7676;DHT22;3880;51.464;-2.566;2022-07-23T07:21:52;18.70;99.90
7676;DHT22;3880;51.464;-2.566;2022-07-23T07:24:34;18.70;99.90
7676;DHT22;3880;51.464;-2.566;2022-07-23T07:27:22;18.70;99.90
7676;DHT22;3880;51.464;-2.566;2022-07-23T07:30:00;18.80;99.90
7676;DHT22;3880;51.464;-2.566;2022-07-23T07:32:39;18.90;99.90
7676;DHT22;3880;51.464;-2.566;2022-07-23T07:35:07;18.80;99.90
7676;DHT22;3880;51.464;-2.566;2022-07-23T07:37:37;18.80;99.90
7676;DHT22;3880;51.464;-2.566;2022-07-23T07:40:13;18.60;99.90
7676;DHT22;3880;51.464;-2.566;2022-07-23T07:42:51;18.50;99.90
7676;DHT22;3880;51.464;-2.566;2022-07-23T07:45:22;18.70;99.90
7676;DHT22;3880;51.464;-2.566;2022-07-23T07:47:59;18.70;99.90
7676;DHT22;3880;51.464;-2.566;2022-07-23T07:51:07;18.40;99.90
7676;DHT22;3880;51.464;-2.566;2022-07-23T07:53:44;18.60;99.90
7676;DHT22;3880;51.464;-2.566;2022-07-23T09:01:16;20.30;99.90
7676;DHT22;3880;51.464;-2.566;2022-07-23T09:03:43;20.30;99.90
7676;DHT22;3880;51.464;-2.566;2022-07-23T09:06:10;20.20;99.90
7676;DHT22;3880;51.464;-2.566;2022-07-23T09:13:49;20.80;99.90
7676;DHT22;3880;51.464;-2.566;2022-07-23T09:16:31;21.00;99.90
7676;DHT22;3880;51.464;-2.566;2022-07-23T09:19:48;20.90;99.90
7676;DHT22;3880;51.464;-2.566;2022-07-23T09:22:19;21.10;99.90
7676;DHT22;3880;51.464;-2.566;2022-07-23T09:25:13;21.00;99.90
7676;DHT22;3880;51.464;-2.566;2022-07-23T09:27:53;20.20;99.90
7676;DHT22;3880;51.464;-2.566;2022-07-23T09:30:22;20.00;99.90
7676;DHT22;3880;51.464;-2.566;2022-07-23T09:33:10;19.80;99.90
7676;DHT22;3880;51.464;-2.566;2022-07-23T09:36:07;20.10;99.90
7676;DHT22;3880;51.464;-2.566;2022-07-23T09:38:47;20.20;99.90
7676;DHT22;3880;51.464;-2.566;2022-07-23T09:41:15;20.10;99.90
7676;DHT22;3880;51.464;-2.566;2022-07-23T09:43:42;20.10;99.90
7676;DHT22;3880;51.464;-2.566;2022-07-23T09:46:20;20.20;99.90
7676;DHT22;3880;51.464;-2.566;2022-07-23T09:48:49;20.40;99.90
7676;DHT22;3880;51.464;-2.566;2022-07-23T09:51:17;20.70;99.90
7676;DHT22;3880;51.464;-2.566;2022-07-23T09:53:46;20.70;99.90
7676;DHT22;3880;51.464;-2.566;2022-07-23T09:56:14;20.60;99.90
7676;DHT22;3880;51.464;-2.566;2022-07-23T09:58:41;20.90;99.90
7676;DHT22;3880;51.464;-2.566;2022-07-23T10:01:14;20.70;99.90
7676;DHT22;3880;51.464;-2.566;2022-07-23T10:03:42;20.70;99.90
7676;DHT22;3880;51.464;-2.566;2022-07-23T10:06:13;20.70;99.90
7676;DHT22;3880;51.464;-2.566;2022-07-23T10:08:41;20.60;99.90
7676;DHT22;3880;51.464;-2.566;2022-07-23T10:11:11;20.70;99.90
7676;DHT22;3880;51.464;-2.566;2022-07-23T10:13:40;20.80;99.90
7676;DHT22;3880;51.464;-2.566;2022-07-23T10:16:18;20.90;99.90
7676;DHT22;3880;51.464;-2.566;2022-07-23T10:18:46;20.90;99.90
7676;DHT22;3880;51.464;-2.566;2022-07-23T10:21:20;21.10;99.90
7676;DHT22;3880;51.464;-2.566;2022-07-23T10:24:10;20.70;99.90
7676;DHT22;3880;51.464;-2.566;2022-07-23T10:26:44;21.20;99.90
7676;DHT22;3880;51.464;-2.566;2022-07-23T10:29:20;21.60;99.90
7676;DHT22;3880;51.464;-2.566;2022-07-23T10:31:56;21.70;99.90
7676;DHT22;3880;51.464;-2.566;2022-07-23T10:34:35;21.60;99.90
7676;DHT22;3880;51.464;-2.566;2022-07-23T10:37:13;21.20;99.90
7676;DHT22;3880;51.464;-2.566;2022-07-23T10:39:42;21.10;99.90
7676;DHT22;3880;51.464;-2.566;2022-07-23T10:42:10;20.80;99.90
7676;DHT22;3880;51.464;-2.566;2022-07-23T10:44:42;20.70;99.90
7676;DHT22;3880;51.464;-2.566;2022-07-23T10:47:10;20.70;99.90
7676;DHT22;3880;51.464;-2.566;2022-07-23T10:49:51;20.70;99.90
7676;DHT22;3880;51.464;-2.566;2022-07-23T10:52:26;20.50;99.90
7676;DHT22;3880;51.464;-2.566;2022-07-23T10:54:56;20.40;99.90
7676;DHT22;3880;51.464;-2.566;2022-07-23T10:57:25;20.40;99.90
7676;DHT22;3880;51.464;-2.566;2022-07-23T11:00:14;20.40;99.90
7676;DHT22;3880;51.464;-2.566;2022-07-23T11:02:46;20.60;99.90
7676;DHT22;3880;51.464;-2.566;2022-07-23T11:05:15;20.50;99.90
7676;DHT22;3880;51.464;-2.566;2022-07-23T11:08:18;20.30;99.90
7676;DHT22;3880;51.464;-2.566;2022-07-23T11:10:52;20.40;99.90
7676;DHT22;3880;51.464;-2.566;2022-07-23T11:13:47;20.30;99.90
7676;DHT22;3880;51.464;-2.566;2022-07-23T11:16:26;20.10;99.90
7676;DHT22;3880;51.464;-2.566;2022-07-23T11:19:08;20.10;99.90
7676;DHT22;3880;51.464;-2.566;2022-07-23T11:21:48;20.50;99.90
7676;DHT22;3880;51.464;-2.566;2022-07-23T11:24:28;20.80;99.90
7676;DHT22;3880;51.464;-2.566;2022-07-23T11:27:02;20.80;99.90
7676;DHT22;3880;51.464;-2.566;2022-07-23T11:29:47;21.10;99.90
7676;DHT22;3880;51.464;-2.566;2022-07-23T11:32:39;21.20;99.90
7676;DHT22;3880;51.464;-2.566;2022-07-23T11:35:24;21.60;99.90
7676;DHT22;3880;51.464;-2.566;2022-07-23T11:37:53;21.80;99.90
7676;DHT22;3880;51.464;-2.566;2022-07-23T11:40:25;21.60;99.90
7676;DHT22;3880;51.464;-2.566;2022-07-23T11:42:58;21.40;99.90
7676;DHT22;3880;51.464;-2.566;2022-07-23T11:45:33;21.60;99.90
7676;DHT22;3880;51.464;-2.566;2022-07-23T11:48:00;21.30;99.90
7676;DHT22;3880;51.464;-2.566;2022-07-23T11:50:28;21.10;99.90
7676;DHT22;3880;51.464;-2.566;2022-07-23T11:52:56;21.20;99.90
7676;DHT22;3880;51.464;-2.566;2022-07-23T11:55:28;21.60;99.90
7676;DHT22;3880;51.464;-2.566;2022-07-23T11:57:55;21.80;99.90
7676;DHT22;3880;51.464;-2.566;2022-07-23T12:00:25;21.50;99.90
7676;DHT22;3880;51.464;-2.566;2022-07-23T12:02:53;21.30;99.90
7676;DHT22;3880;51.464;-2.566;2022-07-23T12:05:26;21.30;99.90
7676;DHT22;3880;51.464;-2.566;2022-07-23T12:07:54;21.10;99.90
7676;DHT22;3880;51.464;-2.566;2022-07-23T12:10:23;21.40;99.90
7676;DHT22;3880;51.464;-2.566;2022-07-23T12:12:54;21.70;99.90
7676;DHT22;3880;51.464;-2.566;2022-07-23T12:15:24;21.60;99.90
7676;DHT22;3880;51.464;-2.566;2022-07-23T12:17:52;21.40;99.90
7676;DHT22;3880;51.464;-2.566;2022-07-23T12:20:23;21.40;99.90
7676;DHT22;3880;51.464;-2.566;2022-07-23T12:22:52;21.10;99.90
7676;DHT22;3880;51.464;-2.566;2022-07-23T12:25:22;20.90;99.90
7676;DHT22;3880;51.464;-2.566;2022-07-23T12:28:02;20.80;99.90
7676;DHT22;3880;51.464;-2.566;2022-07-23T12:30:32;21.00;99.90
7676;DHT22;3880;51.464;-2.566;2022-07-23T12:32:59;21.00;99.90
7676;DHT22;3880;51.464;-2.566;2022-07-23T12:35:35;21.20;99.90
7676;DHT22;3880;51.464;-2.566;2022-07-23T12:38:05;21.00;99.90
7676;DHT22;3880;51.464;-2.566;2022-07-23T12:40:35;20.60;99.90
7676;DHT22;3880;51.464;-2.566;2022-07-23T12:43:05;20.70;99.90
7676;DHT22;3880;51.464;-2.566;2022-07-23T12:45:44;20.70;99.90
7676;DHT22;3880;51.464;-2.566;2022-07-23T12:48:23;20.50;99.90
7676;DHT22;3880;51.464;-2.566;2022-07-23T12:50:53;20.60;99.90
7676;DHT22;3880;51.464;-2.566;2022-07-23T12:53:23;20.50;99.90
7676;DHT22;3880;51.464;-2.566;2022-07-23T12:55:56;20.50;99.90
7676;DHT22;3880;51.464;-2.566;2022-07-23T12:58:25;20.40;99.90
7676;DHT22;3880;51.464;-2.566;2022-07-23T13:01:02;20.20;99.90
7676;DHT22;3880;51.464;-2.566;2022-07-23T13:03:35;20.30;99.90
7676;DHT22;3880;51.464;-2.566;2022-07-23T13:06:05;20.40;99.90
7676;DHT22;3880;51.464;-2.566;2022-07-23T13:08:34;20.60;99.90
7676;DHT22;3880;51.464;-2.566;2022-07-23T13:11:05;20.80;99.90
7676;DHT22;3880;51.464;-2.566;2022-07-23T13:13:35;20.90;99.90
7676;DHT22;3880;51.464;-2.566;2022-07-23T13:16:03;20.90;99.90
7676;DHT22;3880;51.464;-2.566;2022-07-23T13:18:30;21.20;99.90
7676;DHT22;3880;51.464;-2.566;2022-07-23T13:20:58;21.50;99.90
7676;DHT22;3880;51.464;-2.566;2022-07-23T13:23:34;21.60;99.90
7676;DHT22;3880;51.464;-2.566;2022-07-23T13:26:06;22.00;99.90
7676;DHT22;3880;51.464;-2.566;2022-07-23T13:28:35;22.00;99.90
7676;DHT22;3880;51.464;-2.566;2022-07-23T13:31:03;21.80;99.90
7676;DHT22;3880;51.464;-2.566;2022-07-23T13:33:31;21.80;99.90
7676;DHT22;3880;51.464;-2.566;2022-07-23T13:35:58;21.60;99.90
7676;DHT22;3880;51.464;-2.566;2022-07-23T13:38:25;21.80;99.90
7676;DHT22;3880;51.464;-2.566;2022-07-23T13:40:53;21.50;99.90
7676;DHT22;3880;51.464;-2.566;2022-07-23T13:43:24;21.50;99.90
7676;DHT22;3880;51.464;-2.566;2022-07-23T13:45:59;21.70;99.90
7676;DHT22;3880;51.464;-2.566;2022-07-23T13:48:31;21.60;99.90
7676;DHT22;3880;51.464;-2.566;2022-07-23T13:50:58;21.50;99.90
7676;DHT22;3880;51.464;-2.566;2022-07-23T13:53:26;21.40;99.90
7676;DHT22;3880;51.464;-2.566;2022-07-23T13:55:56;21.50;99.90
7676;DHT22;3880;51.464;-2.566;2022-07-23T13:58:25;21.50;99.90
7676;DHT22;3880;51.464;-2.566;2022-07-23T14:00:55;21.60;99.90
7676;DHT22;3880;51.464;-2.566;2022-07-23T14:03:31;21.70;99.90
7676;DHT22;3880;51.464;-2.566;2022-07-23T14:05:58;21.70;99.90
7676;DHT22;3880;51.464;-2.566;2022-07-23T14:08:26;21.60;99.90
7676;DHT22;3880;51.464;-2.566;2022-07-23T14:10:57;21.50;99.90
7676;DHT22;3880;51.464;-2.566;2022-07-23T14:13:35;21.40;99.90
7676;DHT22;3880;51.464;-2.566;2022-07-23T14:16:03;21.50;99.90
7676;DHT22;3880;51.464;-2.566;2022-07-23T14:18:32;21.50;99.90
7676;DHT22;3880;51.464;-2.566;2022-07-23T14:20:59;21.50;99.90
7676;DHT22;3880;51.464;-2.566;2022-07-23T14:23:26;21.60;99.90
7676;DHT22;3880;51.464;-2.566;2022-07-23T14:25:55;21.40;99.90
7676;DHT22;3880;51.464;-2.566;2022-07-23T14:28:22;21.60;99.90
7676;DHT22;3880;51.464;-2.566;2022-07-23T14:30:49;22.00;99.90
7676;DHT22;3880;51.464;-2.566;2022-07-23T14:33:17;22.40;99.90
7676;DHT22;3880;51.464;-2.566;2022-07-23T14:35:45;22.50;99.90
7676;DHT22;3880;51.464;-2.566;2022-07-23T14:38:12;22.30;99.90
7676;DHT22;3880;51.464;-2.566;2022-07-23T14:40:39;22.50;99.90
7676;DHT22;3880;51.464;-2.566;2022-07-23T14:43:07;22.70;99.90
7676;DHT22;3880;51.464;-2.566;2022-07-23T14:45:37;22.60;99.90
7676;DHT22;3880;51.464;-2.566;2022-07-23T14:48:18;22.40;99.90
7676;DHT22;3880;51.464;-2.566;2022-07-23T14:50:46;22.20;99.90
7676;DHT22;3880;51.464;-2.566;2022-07-23T14:53:16;22.20;99.90
7676;DHT22;3880;51.464;-2.566;2022-07-23T14:55:51;22.00;99.90
7676;DHT22;3880;51.464;-2.566;2022-07-23T14:58:18;21.60;99.90
7676;DHT22;3880;51.464;-2.566;2022-07-23T15:00:45;21.10;99.90
7676;DHT22;3880;51.464;-2.566;2022-07-23T15:03:12;21.10;99.90
7676;DHT22;3880;51.464;-2.566;2022-07-23T15:05:39;21.20;99.90
7676;DHT22;3880;51.464;-2.566;2022-07-23T15:08:08;21.10;99.90
7676;DHT22;3880;51.464;-2.566;2022-07-23T15:10:35;21.20;99.90
7676;DHT22;3880;51.464;-2.566;2022-07-23T15:13:02;21.40;99.90
7676;DHT22;3880;51.464;-2.566;2022-07-23T15:15:30;21.50;99.90
7676;DHT22;3880;51.464;-2.566;2022-07-23T15:17:58;21.50;99.90
7676;DHT22;3880;51.464;-2.566;2022-07-23T15:20:28;21.60;99.90
7676;DHT22;3880;51.464;-2.566;2022-07-23T15:23:03;21.50;99.90
7676;DHT22;3880;51.464;-2.566;2022-07-23T15:25:32;21.80;99.90
7676;DHT22;3880;51.464;-2.566;2022-07-23T15:27:59;21.80;99.90
7676;DHT22;3880;51.464;-2.566;2022-07-23T15:30:26;21.80;99.90
7676;DHT22;3880;51.464;-2.566;2022-07-23T15:32:54;21.90;99.90
7676;DHT22;3880;51.464;-2.566;2022-07-23T15:35:21;21.90;99.90
7676;DHT22;3880;51.464;-2.566;2022-07-23T15:37:48;21.60;99.90
7676;DHT22;3880;51.464;-2.566;2022-07-23T15:40:15;21.40;99.90
7676;DHT22;3880;51.464;-2.566;2022-07-23T15:42:43;21.20;99.90
7676;DHT22;3880;51.464;-2.566;2022-07-23T15:45:11;21.10;99.90
7676;DHT22;3880;51.464;-2.566;2022-07-23T15:47:38;21.20;99.90
7676;DHT22;3880;51.464;-2.566;2022-07-23T15:50:07;21.10;99.90
7676;DHT22;3880;51.464;-2.566;2022-07-23T15:52:35;21.20;99.90
7676;DHT22;3880;51.464;-2.566;2022-07-23T15:55:02;21.00;99.90
7676;DHT22;3880;51.464;-2.566;2022-07-23T15:57:32;21.10;99.90
7676;DHT22;3880;51.464;-2.566;2022-07-23T16:00:05;21.00;99.90
7676;DHT22;3880;51.464;-2.566;2022-07-23T16:02:32;21.10;99.90
7676;DHT22;3880;51.464;-2.566;2022-07-23T16:04:59;21.20;99.90
7676;DHT22;3880;51.464;-2.566;2022-07-23T16:07:26;21.20;99.90
7676;DHT22;3880;51.464;-2.566;2022-07-23T16:09:56;21.30;99.90
7676;DHT22;3880;51.464;-2.566;2022-07-23T16:12:23;21.40;99.90
7676;DHT22;3880;51.464;-2.566;2022-07-23T16:14:50;21.50;99.90
7676;DHT22;3880;51.464;-2.566;2022-07-23T16:17:19;21.40;99.90
7676;DHT22;3880;51.464;-2.566;2022-07-23T16:19:46;21.30;99.90
7676;DHT22;3880;51.464;-2.566;2022-07-23T16:22:13;21.40;99.90
7676;DHT22;3880;51.464;-2.566;2022-07-23T16:24:41;21.40;99.90
7676;DHT22;3880;51.464;-2.566;2022-07-23T16:27:09;21.40;99.90
7676;DHT22;3880;51.464;-2.566;2022-07-23T16:29:42;21.30;99.90
7676;DHT22;3880;51.464;-2.566;2022-07-23T16:32:10;21.10;99.90
7676;DHT22;3880;51.464;-2.566;2022-07-23T16:34:39;20.90;99.90
7676;DHT22;3880;51.464;-2.566;2022-07-23T16:37:08;20.90;99.90
7676;DHT22;3880;51.464;-2.566;2022-07-23T16:39:35;20.90;99.90
7676;DHT22;3880;51.464;-2.566;2022-07-23T16:42:03;21.00;99.90
7676;DHT22;3880;51.464;-2.566;2022-07-23T16:44:31;21.10;99.90
7676;DHT22;3880;51.464;-2.566;2022-07-23T16:46:58;21.10;99.90
7676;DHT22;3880;51.464;-2.566;2022-07-23T16:49:25;21.20;99.90
7676;DHT22;3880;51.464;-2.566;2022-07-23T16:51:58;21.20;99.90
7676;DHT22;3880;51.464;-2.566;2022-07-23T16:54:26;21.10;99.90
7676;DHT22;3880;51.464;-2.566;2022-07-23T16:57:00;20.90;99.90
7676;DHT22;3880;51.464;-2.566;2022-07-23T16:59:30;20.90;99.90
7676;DHT22;3880;51.464;-2.566;2022-07-23T17:01:57;20.90;99.90
7676;DHT22;3880;51.464;-2.566;2022-07-23T17:04:24;21.00;99.90
7676;DHT22;3880;51.464;-2.566;2022-07-23T17:06:53;21.00;99.90
7676;DHT22;3880;51.464;-2.566;2022-07-23T17:09:22;20.90;99.90
7676;DHT22;3880;51.464;-2.566;2022-07-23T17:11:52;20.90;99.90
7676;DHT22;3880;51.464;-2.566;2022-07-23T17:14:19;21.00;99.90
7676;DHT22;3880;51.464;-2.566;2022-07-23T17:16:46;20.90;99.90
7676;DHT22;3880;51.464;-2.566;2022-07-23T17:19:14;21.10;99.90
7676;DHT22;3880;51.464;-2.566;2022-07-23T17:21:41;21.30;99.90
7676;DHT22;3880;51.464;-2.566;2022-07-23T17:24:09;21.40;99.90
7676;DHT22;3880;51.464;-2.566;2022-07-23T17:26:36;21.30;99.90
7676;DHT22;3880;51.464;-2.566;2022-07-23T17:29:03;20.70;99.90
7676;DHT22;3880;51.464;-2.566;2022-07-23T17:31:30;20.30;99.90
7676;DHT22;3880;51.464;-2.566;2022-07-23T17:33:58;19.90;99.90
7676;DHT22;3880;51.464;-2.566;2022-07-23T17:36:25;19.80;99.90
7676;DHT22;3880;51.464;-2.566;2022-07-23T17:38:52;19.70;99.90
7676;DHT22;3880;51.464;-2.566;2022-07-23T17:41:21;19.60;99.90
7676;DHT22;3880;51.464;-2.566;2022-07-23T17:43:48;19.70;99.90
7676;DHT22;3880;51.464;-2.566;2022-07-23T17:46:15;19.80;99.90
7676;DHT22;3880;51.464;-2.566;2022-07-23T17:48:42;19.90;99.90
7676;DHT22;3880;51.464;-2.566;2022-07-23T17:51:10;20.00;99.90
7676;DHT22;3880;51.464;-2.566;2022-07-23T17:53:37;19.90;99.90
7676;DHT22;3880;51.464;-2.566;2022-07-23T17:56:05;20.00;99.90
7676;DHT22;3880;51.464;-2.566;2022-07-23T17:58:34;20.10;99.90
7676;DHT22;3880;51.464;-2.566;2022-07-23T18:01:01;20.20;99.90
7676;DHT22;3880;51.464;-2.566;2022-07-23T18:03:28;20.30;99.90
7676;DHT22;3880;51.464;-2.566;2022-07-23T18:05:56;20.30;99.90
7676;DHT22;3880;51.464;-2.566;2022-07-23T18:08:24;20.40;99.90
7676;DHT22;3880;51.464;-2.566;2022-07-23T18:10:51;20.50;99.90
7676;DHT22;3880;51.464;-2.566;2022-07-23T18:13:18;20.60;99.90
7676;DHT22;3880;51.464;-2.566;2022-07-23T18:15:47;20.40;99.90
7676;DHT22;3880;51.464;-2.566;2022-07-23T18:18:15;20.50;99.90
7676;DHT22;3880;51.464;-2.566;2022-07-23T18:20:42;20.50;99.90
7676;DHT22;3880;51.464;-2.566;2022-07-23T18:23:09;20.40;99.90
7676;DHT22;3880;51.464;-2.566;2022-07-23T18:25:37;20.40;99.90
7676;DHT22;3880;51.464;-2.566;2022-07-23T18:28:04;20.40;99.90
7676;DHT22;3880;51.464;-2.566;2022-07-23T18:30:32;20.40;99.90
7676;DHT22;3880;51.464;-2.566;2022-07-23T18:33:00;20.60;99.90
7676;DHT22;3880;51.464;-2.566;2022-07-23T18:35:28;20.60;99.90
7676;DHT22;3880;51.464;-2.566;2022-07-23T18:37:55;20.70;99.90
7676;DHT22;3880;51.464;-2.566;2022-07-23T18:40:22;20.70;99.90
7676;DHT22;3880;51.464;-2.566;2022-07-23T18:42:49;20.80;99.90
7676;DHT22;3880;51.464;-2.566;2022-07-23T18:45:18;20.80;99.90
7676;DHT22;3880;51.464;-2.566;2022-07-23T18:47:45;20.80;99.90
7676;DHT22;3880;51.464;-2.566;2022-07-23T18:50:14;20.80;99.90
7676;DHT22;3880;51.464;-2.566;2022-07-23T18:52:55;20.70;99.90
7676;DHT22;3880;51.464;-2.566;2022-07-23T18:55:24;20.50;99.90
7676;DHT22;3880;51.464;-2.566;2022-07-23T18:57:51;20.60;99.90
7676;DHT22;3880;51.464;-2.566;2022-07-23T19:00:21;20.40;99.90
7676;DHT22;3880;51.464;-2.566;2022-07-23T19:02:48;20.40;99.90
7676;DHT22;3880;51.464;-2.566;2022-07-23T19:05:16;20.40;99.90
7676;DHT22;3880;51.464;-2.566;2022-07-23T19:07:43;20.40;99.90
7676;DHT22;3880;51.464;-2.566;2022-07-23T19:10:10;20.40;99.90
7676;DHT22;3880;51.464;-2.566;2022-07-23T19:12:38;20.40;99.90
7676;DHT22;3880;51.464;-2.566;2022-07-23T19:15:06;20.50;99.90
7676;DHT22;3880;51.464;-2.566;2022-07-23T19:17:33;20.40;99.90
7676;DHT22;3880;51.464;-2.566;2022-07-23T19:20:00;20.30;99.90
7676;DHT22;3880;51.464;-2.566;2022-07-23T19:22:29;20.30;99.90
7676;DHT22;3880;51.464;-2.566;2022-07-23T19:24:56;20.30;99.90
7676;DHT22;3880;51.464;-2.566;2022-07-23T19:27:23;20.20;99.90
7676;DHT22;3880;51.464;-2.566;2022-07-23T19:29:52;20.20;99.90
7676;DHT22;3880;51.464;-2.566;2022-07-23T19:32:19;20.20;99.90
7676;DHT22;3880;51.464;-2.566;2022-07-23T19:34:46;20.20;99.90
7676;DHT22;3880;51.464;-2.566;2022-07-23T19:37:13;20.20;99.90
7676;DHT22;3880;51.464;-2.566;2022-07-23T19:39:44;20.20;99.90
7676;DHT22;3880;51.464;-2.566;2022-07-23T19:42:12;20.20;99.90
7676;DHT22;3880;51.464;-2.566;2022-07-23T19:44:40;20.10;99.90
7676;DHT22;3880;51.464;-2.566;2022-07-23T19:47:07;20.20;99.90
7676;DHT22;3880;51.464;-2.566;2022-07-23T19:49:34;20.10;99.90
7676;DHT22;3880;51.464;-2.566;2022-07-23T19:52:01;20.10;99.90
7676;DHT22;3880;51.464;-2.566;2022-07-23T19:54:29;20.10;99.90
7676;DHT22;3880;51.464;-2.566;2022-07-23T19:56:57;20.00;99.90
7676;DHT22;3880;51.464;-2.566;2022-07-23T19:59:24;19.90;99.90
7676;DHT22;3880;51.464;-2.566;2022-07-23T20:01:51;19.50;99.90
7676;DHT22;3880;51.464;-2.566;2022-07-23T20:04:18;19.40;99.90
7676;DHT22;3880;51.464;-2.566;2022-07-23T20:06:46;19.30;99.90
7676;DHT22;3880;51.464;-2.566;2022-07-23T20:09:13;19.30;99.90
7676;DHT22;3880;51.464;-2.566;2022-07-23T20:11:40;19.20;99.90
7676;DHT22;3880;51.464;-2.566;2022-07-23T20:14:09;19.30;99.90
7676;DHT22;3880;51.464;-2.566;2022-07-23T20:16:36;19.20;99.90
7676;DHT22;3880;51.464;-2.566;2022-07-23T20:19:03;19.20;99.90
7676;DHT22;3880;51.464;-2.566;2022-07-23T20:21:30;19.20;99.90
7676;DHT22;3880;51.464;-2.566;2022-07-23T20:23:57;19.20;99.90
7676;DHT22;3880;51.464;-2.566;2022-07-23T20:26:24;19.30;99.90
7676;DHT22;3880;51.464;-2.566;2022-07-23T20:28:51;19.30;99.90
7676;DHT22;3880;51.464;-2.566;2022-07-23T20:31:20;19.30;99.90
7676;DHT22;3880;51.464;-2.566;2022-07-23T20:33:47;19.30;99.90
7676;DHT22;3880;51.464;-2.566;2022-07-23T20:36:14;19.30;99.90
7676;DHT22;3880;51.464;-2.566;2022-07-23T20:38:41;19.40;99.90
7676;DHT22;3880;51.464;-2.566;2022-07-23T20:41:08;19.30;99.90
7676;DHT22;3880;51.464;-2.566;2022-07-23T20:43:35;19.40;99.90
7676;DHT22;3880;51.464;-2.566;2022-07-23T20:46:02;19.30;99.90
7676;DHT22;3880;51.464;-2.566;2022-07-23T20:48:30;19.20;99.90
7676;DHT22;3880;51.464;-2.566;2022-07-23T20:50:57;19.10;99.90
7676;DHT22;3880;51.464;-2.566;2022-07-23T20:53:25;19.30;99.90
7676;DHT22;3880;51.464;-2.566;2022-07-23T20:55:53;19.30;99.90
7676;DHT22;3880;51.464;-2.566;2022-07-23T20:58:25;19.20;99.90
7676;DHT22;3880;51.464;-2.566;2022-07-23T21:00:52;19.20;99.90
7676;DHT22;3880;51.464;-2.566;2022-07-23T21:03:19;19.30;99.90
7676;DHT22;3880;51.464;-2.566;2022-07-23T21:05:48;19.40;99.90
7676;DHT22;3880;51.464;-2.566;2022-07-23T21:08:15;19.20;99.90
7676;DHT22;3880;51.464;-2.566;2022-07-23T21:10:42;19.30;99.90
7676;DHT22;3880;51.464;-2.566;2022-07-23T21:13:09;19.30;99.90
7676;DHT22;3880;51.464;-2.566;2022-07-23T21:15:36;19.10;99.90
7676;DHT22;3880;51.464;-2.566;2022-07-23T21:18:03;18.90;99.90
7676;DHT22;3880;51.464;-2.566;2022-07-23T21:20:30;18.80;99.90
7676;DHT22;3880;51.464;-2.566;2022-07-23T21:23:19;18.70;99.90
7676;DHT22;3880;51.464;-2.566;2022-07-23T21:25:46;18.60;99.90
7676;DHT22;3880;51.464;-2.566;2022-07-23T21:28:15;18.60;99.90
7676;DHT22;3880;51.464;-2.566;2022-07-23T21:30:42;18.60;99.90
7676;DHT22;3880;51.464;-2.566;2022-07-23T21:33:09;18.70;99.90
7676;DHT22;3880;51.464;-2.566;2022-07-23T21:35:36;18.60;99.90
7676;DHT22;3880;51.464;-2.566;2022-07-23T21:38:03;18.60;99.90
7676;DHT22;3880;51.464;-2.566;2022-07-23T21:40:32;18.60;99.90
7676;DHT22;3880;51.464;-2.566;2022-07-23T21:42:59;18.60;99.90
7676;DHT22;3880;51.464;-2.566;2022-07-23T21:45:26;18.60;99.90
7676;DHT22;3880;51.464;-2.566;2022-07-23T21:47:53;18.60;99.90
7676;DHT22;3880;51.464;-2.566;2022-07-23T21:50:21;18.60;99.90
7676;DHT22;3880;51.464;-2.566;2022-07-23T21:52:48;18.60;99.90
7676;DHT22;3880;51.464;-2.566;2022-07-23T21:55:15;18.60;99.90
7676;DHT22;3880;51.464;-2.566;2022-07-23T21:57:44;18.70;99.90
7676;DHT22;3880;51.464;-2.566;2022-07-23T22:00:14;18.70;99.90
7676;DHT22;3880;51.464;-2.566;2022-07-23T22:02:42;18.70;99.90
7676;DHT22;3880;51.464;-2.566;2022-07-23T22:05:09;18.80;99.90
7676;DHT22;3880;51.464;-2.566;2022-07-23T22:07:36;18.80;99.90
7676;DHT22;3880;51.464;-2.566;2022-07-23T22:10:04;18.80;99.90
7676;DHT22;3880;51.464;-2.566;2022-07-23T22:12:32;18.80;99.90
7676;DHT22;3880;51.464;-2.566;2022-07-23T22:15:00;19.00;99.90
7676;DHT22;3880;51.464;-2.566;2022-07-23T22:17:27;19.00;99.90
7676;DHT22;3880;51.464;-2.566;2022-07-23T22:19:57;19.00;99.90
7676;DHT22;3880;51.464;-2.566;2022-07-23T22:22:25;18.80;99.90
7676;DHT22;3880;51.464;-2.566;2022-07-23T22:24:53;18.70;99.90
7676;DHT22;3880;51.464;-2.566;2022-07-23T22:27:20;18.70;99.90
7676;DHT22;3880;51.464;-2.566;2022-07-23T22:29:47;18.60;99.90
7676;DHT22;3880;51.464;-2.566;2022-07-23T22:32:15;18.60;99.90
7676;DHT22;3880;51.464;-2.566;2022-07-23T22:34:42;18.60;99.90
7676;DHT22;3880;51.464;-2.566;2022-07-23T22:37:09;18.60;99.90
7676;DHT22;3880;51.464;-2.566;2022-07-23T22:39:36;18.60;99.90
7676;DHT22;3880;51.464;-2.566;2022-07-23T22:42:03;18.50;99.90
7676;DHT22;3880;51.464;-2.566;2022-07-23T22:44:30;18.60;99.90
7676;DHT22;3880;51.464;-2.566;2022-07-23T22:46:58;18.60;99.90
7676;DHT22;3880;51.464;-2.566;2022-07-23T22:49:29;18.60;99.90
7676;DHT22;3880;51.464;-2.566;2022-07-23T22:51:56;18.70;99.90
7676;DHT22;3880;51.464;-2.566;2022-07-23T22:54:23;18.70;99.90
7676;DHT22;3880;51.464;-2.566;2022-07-23T22:56:51;18.60;99.90
7676;DHT22;3880;51.464;-2.566;2022-07-23T22:59:18;18.60;99.90
7676;DHT22;3880;51.464;-2.566;2022-07-23T23:01:45;18.60;99.90
7676;DHT22;3880;51.464;-2.566;2022-07-23T23:04:12;18.70;99.90
7676;DHT22;3880;51.464;-2.566;2022-07-23T23:06:40;18.70;99.90
7676;DHT22;3880;51.464;-2.566;2022-07-23T23:09:07;18.70;99.90
7676;DHT22;3880;51.464;-2.566;2022-07-23T23:11:34;18.70;99.90
7676;DHT22;3880;51.464;-2.566;2022-07-23T23:14:02;18.70;99.90
7676;DHT22;3880;51.464;-2.566;2022-07-23T23:16:29;18.80;99.90
7676;DHT22;3880;51.464;-2.566;2022-07-23T23:18:56;18.80;99.90
7676;DHT22;3880;51.464;-2.566;2022-07-23T23:21:23;18.70;99.90
7676;DHT22;3880;51.464;-2.566;2022-07-23T23:23:52;18.80;99.90
7676;DHT22;3880;51.464;-2.566;2022-07-23T23:26:19;18.80;99.90
7676;DHT22;3880;51.464;-2.566;2022-07-23T23:28:46;18.80;99.90
7676;DHT22;3880;51.464;-2.566;2022-07-23T23:31:13;18.80;99.90
7676;DHT22;3880;51.464;-2.566;2022-07-23T23:33:40;18.70;99.90
7676;DHT22;3880;51.464;-2.566;2022-07-23T23:36:08;18.70;99.90